createdAt,value
2024-01-06T00:01:13.859Z,98979.59
2024-01-06T00:03:46.216Z,98986.38
2024-01-06T00:06:15.559Z,98984.53
2024-01-06T00:08:42.840Z,98978.56
2024-01-06T00:11:10.980Z,98983.94
2024-01-06T00:13:40.562Z,98979.00
2024-01-06T00:16:08.010Z,98972.72
2024-01-06T00:18:35.302Z,98977.75
2024-01-06T00:21:02.896Z,98978.78
2024-01-06T00:23:29.965Z,98975.16
2024-01-06T00:25:57.928Z,98966.66
2024-01-06T00:28:25.147Z,98963.59
2024-01-06T00:30:52.671Z,98974.44
2024-01-06T00:33:19.959Z,98968.28
2024-01-06T00:35:47.020Z,98966.19
2024-01-06T00:38:14.235Z,98969.22
2024-01-06T00:40:41.532Z,98965.25
2024-01-06T00:43:08.561Z,98968.19
2024-01-06T00:45:35.910Z,98961.41
2024-01-06T00:48:03.038Z,98958.13
2024-01-06T00:50:30.274Z,98952.56
2024-01-06T00:52:57.535Z,98960.59
2024-01-06T00:55:25.739Z,98954.78
2024-01-06T00:57:52.953Z,98954.31
2024-01-06T01:00:20.418Z,98954.06
2024-01-06T01:02:47.541Z,98948.34
2024-01-06T01:05:14.914Z,98951.72
2024-01-06T01:07:42.100Z,98953.59
2024-01-06T01:10:10.329Z,98947.19
2024-01-06T01:12:37.919Z,98943.66
2024-01-06T01:15:05.298Z,98944.94
2024-01-06T01:17:32.527Z,98939.00
2024-01-06T01:19:59.749Z,98941.47
2024-01-06T01:22:27.062Z,98941.00
2024-01-06T01:24:54.216Z,98932.63
2024-01-06T01:27:21.393Z,98927.00
2024-01-06T01:29:49.797Z,98926.19
2024-01-06T01:32:20.520Z,98932.72
2024-01-06T01:34:47.888Z,98929.56
2024-01-06T01:37:15.333Z,98932.13
2024-01-06T01:39:42.608Z,98925.97
2024-01-06T01:42:09.993Z,98910.78
2024-01-06T01:44:37.108Z,98905.53
2024-01-06T01:47:06.306Z,98916.41
2024-01-06T01:49:34.237Z,98912.78
2024-01-06T01:52:01.631Z,98917.00
2024-01-06T01:54:28.982Z,98905.53
2024-01-06T01:56:56.189Z,98891.91
2024-01-06T01:59:23.453Z,98892.97
2024-01-06T02:01:51.177Z,98898.34
2024-01-06T02:04:18.553Z,98888.63
2024-01-06T02:06:45.776Z,98897.38
2024-01-06T02:09:13.168Z,98895.16
2024-01-06T02:11:40.373Z,98883.97
2024-01-06T02:14:07.885Z,98897.03
2024-01-06T02:16:34.981Z,98885.13
2024-01-06T02:19:02.582Z,98889.69
2024-01-06T02:21:32.665Z,98896.81
2024-01-06T02:23:59.702Z,98889.81
2024-01-06T02:26:26.935Z,98903.69
2024-01-06T02:28:54.011Z,98899.38
2024-01-06T02:31:21.179Z,98885.25
2024-01-06T02:33:48.598Z,98873.72
2024-01-06T02:36:15.839Z,98882.47
2024-01-06T02:38:43.069Z,98883.06
2024-01-06T02:41:10.133Z,98882.84
2024-01-06T02:43:37.256Z,98874.06
2024-01-06T02:46:04.517Z,98869.75
2024-01-06T02:48:32.316Z,98869.66
2024-01-06T02:50:59.505Z,98859.13
2024-01-06T02:53:26.762Z,98860.44
2024-01-06T02:55:54.107Z,98854.25
2024-01-06T02:58:21.440Z,98849.59
2024-01-06T03:00:48.788Z,98849.31
2024-01-06T03:03:16.289Z,98851.41
2024-01-06T03:05:43.657Z,98852.81
2024-01-06T03:08:10.857Z,98832.72
2024-01-06T03:10:39.545Z,98845.66
2024-01-06T03:13:06.856Z,98844.84
2024-01-06T03:15:33.974Z,98828.75
2024-01-06T03:18:01.156Z,98820.66
2024-01-06T03:20:28.430Z,98821.38
2024-01-06T03:22:55.561Z,98813.31
2024-01-06T03:25:22.811Z,98809.16
2024-01-06T03:27:50.068Z,98826.44
2024-01-06T03:30:17.485Z,98809.47
2024-01-06T03:32:44.903Z,98793.28
2024-01-06T03:35:12.021Z,98805.31
2024-01-06T03:37:39.140Z,98805.06
2024-01-06T03:40:06.919Z,98796.44
2024-01-06T03:42:34.090Z,98797.63
2024-01-06T03:45:01.294Z,98793.88
2024-01-06T03:47:28.388Z,98793.88
2024-01-06T03:49:55.765Z,98791.06
2024-01-06T03:52:23.650Z,98787.00
2024-01-06T03:54:51.003Z,98791.22
2024-01-06T03:57:18.212Z,98794.69
2024-01-06T03:59:45.299Z,98788.88
2024-01-06T04:02:12.444Z,98786.91
2024-01-06T04:04:39.593Z,98801.84
2024-01-06T04:07:08.237Z,98798.34
2024-01-06T04:09:35.336Z,98793.19
2024-01-06T04:12:02.803Z,98792.88
2024-01-06T04:14:30.081Z,98793.56
2024-01-06T04:16:58.225Z,98798.34
2024-01-06T04:19:25.458Z,98785.63
2024-01-06T04:21:52.848Z,98797.66
2024-01-06T04:24:20.158Z,98792.88
2024-01-06T04:26:47.365Z,98780.28
2024-01-06T04:29:14.590Z,98791.22
2024-01-06T04:31:42.953Z,98797.34
2024-01-06T04:34:10.335Z,98794.28
2024-01-06T04:36:38.022Z,98790.56
2024-01-06T04:39:05.311Z,98801.31
2024-01-06T04:41:32.602Z,98797.34
2024-01-06T04:43:59.647Z,98800.00
2024-01-06T04:46:26.967Z,98787.63
2024-01-06T04:48:54.232Z,98784.38
2024-01-06T04:51:21.681Z,98781.94
2024-01-06T04:53:49.129Z,98785.66
2024-01-06T04:56:16.157Z,98786.50
2024-01-06T04:58:43.410Z,98788.13
2024-01-06T05:01:10.731Z,98786.94
2024-01-06T05:03:38.055Z,98800.34
2024-01-06T05:06:05.596Z,98795.94
2024-01-06T05:08:32.748Z,98792.53
2024-01-06T05:11:00.985Z,98794.97
2024-01-06T05:13:28.136Z,98798.03
2024-01-06T05:15:55.751Z,98799.66
2024-01-06T05:18:23.006Z,98788.25
2024-01-06T05:20:50.178Z,98784.25
2024-01-06T05:23:17.315Z,98785.44
2024-01-06T05:25:44.449Z,98784.53
2024-01-06T05:28:11.607Z,98789.41
2024-01-06T05:30:39.030Z,98778.69
2024-01-06T05:33:06.375Z,98781.38
2024-01-06T05:35:33.539Z,98779.28
2024-01-06T05:38:00.671Z,98786.75
2024-01-06T05:40:28.086Z,98787.09
2024-01-06T05:42:57.098Z,98786.28
2024-01-06T05:45:26.246Z,98781.75
2024-01-06T05:47:54.801Z,98785.72
2024-01-06T05:50:22.225Z,98779.63
2024-01-06T05:52:50.332Z,98778.91
2024-01-06T05:55:17.486Z,98783.72
2024-01-06T05:57:47.684Z,98779.50
2024-01-06T06:00:15.569Z,98776.91
2024-01-06T06:02:42.816Z,98767.81
2024-01-06T06:05:10.494Z,98770.94
2024-01-06T06:07:40.970Z,98772.00
2024-01-06T06:10:10.460Z,98773.41
2024-01-06T06:12:38.705Z,98766.47
2024-01-06T06:15:06.596Z,98770.00
2024-01-06T06:17:34.489Z,98770.09
2024-01-06T06:20:01.701Z,98772.13
2024-01-06T06:22:31.806Z,98777.50
2024-01-06T06:25:02.370Z,98777.41
2024-01-06T06:27:29.820Z,98776.19
2024-01-06T06:30:00.153Z,98771.31
2024-01-06T06:32:27.487Z,98769.72
2024-01-06T06:34:54.667Z,98771.09
2024-01-06T06:37:22.447Z,98770.03
2024-01-06T06:39:50.352Z,98766.31
2024-01-06T06:42:17.703Z,98764.28
2024-01-06T06:44:48.379Z,98756.06
2024-01-06T06:47:15.672Z,98761.13
2024-01-06T06:49:43.024Z,98762.16
2024-01-06T06:52:10.650Z,98762.06
2024-01-06T06:54:38.024Z,98760.94
2024-01-06T06:57:05.472Z,98764.03
2024-01-06T06:59:32.617Z,98755.50
2024-01-06T07:02:00.012Z,98752.81
2024-01-06T07:04:28.319Z,98752.59
2024-01-06T07:06:55.537Z,98752.59
2024-01-06T07:09:24.981Z,98752.59
2024-01-06T07:11:52.280Z,98752.59
2024-01-06T07:14:19.380Z,98758.72
2024-01-06T07:16:46.677Z,98758.81
2024-01-06T07:19:14.043Z,98755.63
2024-01-06T07:21:41.298Z,98753.47
2024-01-06T07:24:08.564Z,98760.50
2024-01-06T07:26:35.796Z,98763.09
2024-01-06T07:29:03.218Z,98760.16
2024-01-06T07:31:30.529Z,98756.88
2024-01-06T07:33:58.787Z,98757.56
2024-01-06T07:36:26.364Z,98764.41
2024-01-06T07:38:53.558Z,98768.31
2024-01-06T07:41:21.652Z,98764.16
2024-01-06T07:43:48.768Z,98757.72
2024-01-06T07:46:18.229Z,98769.13
2024-01-06T07:48:46.994Z,98758.16
2024-01-06T07:51:14.530Z,98756.50
2024-01-06T07:53:41.779Z,98760.59
2024-01-06T07:56:09.902Z,98762.97
2024-01-06T07:58:37.072Z,98763.56
2024-01-06T08:01:04.366Z,98760.88
2024-01-06T08:03:32.024Z,98764.19
2024-01-06T08:05:59.736Z,98767.72
2024-01-06T08:08:29.919Z,98767.38
2024-01-06T08:10:57.404Z,98781.28
2024-01-06T08:13:24.821Z,98776.91
2024-01-06T08:15:52.369Z,98782.16
2024-01-06T08:18:19.851Z,98786.53
2024-01-06T08:20:47.595Z,98784.44
2024-01-06T08:23:14.660Z,98779.38
2024-01-06T08:25:42.095Z,98780.84
2024-01-06T08:28:09.367Z,98786.56
2024-01-06T08:30:36.898Z,98775.31
2024-01-06T08:33:04.510Z,98765.25
2024-01-06T08:35:32.813Z,98761.06
2024-01-06T08:38:00.024Z,98770.56
2024-01-06T08:40:28.577Z,98765.16
2024-01-06T08:42:55.658Z,98769.94
2024-01-06T08:45:24.023Z,98767.94
2024-01-06T08:47:51.382Z,98773.41
2024-01-06T08:50:18.465Z,98777.31
2024-01-06T08:52:45.489Z,98774.16
2024-01-06T08:55:12.666Z,98782.06
2024-01-06T08:57:39.832Z,98782.59
2024-01-06T09:00:07.637Z,98781.13
2024-01-06T09:02:36.644Z,98782.38
2024-01-06T09:05:04.101Z,98783.47
2024-01-06T09:07:33.805Z,98786.66
2024-01-06T09:10:01.983Z,98795.03
2024-01-06T09:12:29.263Z,98785.88
2024-01-06T09:14:56.530Z,98788.66
2024-01-06T09:17:24.182Z,98789.78
2024-01-06T09:19:51.536Z,98796.59
2024-01-06T09:22:18.574Z,98794.66
2024-01-06T09:24:45.801Z,98795.97
2024-01-06T09:27:14.357Z,98802.03
2024-01-06T09:29:41.781Z,98791.22
2024-01-06T09:32:08.933Z,98802.00
2024-01-06T09:34:40.088Z,98788.44
2024-01-06T09:37:07.531Z,98794.66
2024-01-06T09:39:34.912Z,98782.06
2024-01-06T09:42:02.775Z,98777.00
2024-01-06T09:44:29.856Z,98783.16
2024-01-06T09:47:01.597Z,98777.75
2024-01-06T09:49:31.708Z,98778.47
2024-01-06T09:52:01.023Z,98771.13
2024-01-06T09:54:35.014Z,98764.72
2024-01-06T09:57:07.462Z,98769.00
2024-01-06T09:59:36.277Z,98770.69
2024-01-06T10:02:06.565Z,98781.34
2024-01-06T10:04:34.430Z,98778.56
2024-01-06T10:07:01.732Z,98772.28
2024-01-06T10:09:29.984Z,98764.22
2024-01-06T10:12:06.869Z,98779.09
2024-01-06T10:14:34.529Z,98780.66
2024-01-06T10:17:03.414Z,98776.19
2024-01-06T10:19:36.139Z,98767.06
2024-01-06T10:22:04.587Z,98772.91
2024-01-06T10:24:33.169Z,98787.38
2024-01-06T10:27:00.619Z,98781.47
2024-01-06T10:29:28.564Z,98775.63
2024-01-06T10:31:56.682Z,98778.00
2024-01-06T10:34:25.077Z,98776.97
2024-01-06T10:36:56.046Z,98787.78
2024-01-06T10:39:23.463Z,98788.91
2024-01-06T10:41:51.134Z,98777.59
2024-01-06T10:44:21.871Z,98780.72
2024-01-06T10:46:51.127Z,98763.59
2024-01-06T10:49:19.471Z,98743.50
2024-01-06T10:51:48.721Z,98739.88
2024-01-06T10:54:17.062Z,98747.78
2024-01-06T10:56:44.749Z,98740.63
2024-01-06T10:59:24.181Z,98742.34
2024-01-06T11:01:55.463Z,98741.88
2024-01-06T11:04:24.492Z,98737.53
2024-01-06T11:06:52.050Z,98719.94
2024-01-06T11:09:41.037Z,98724.47
2024-01-06T11:12:08.886Z,98716.44
2024-01-06T11:14:38.905Z,98718.44
2024-01-06T11:17:06.047Z,98712.03
2024-01-06T11:19:37.337Z,98699.88
2024-01-06T11:22:33.633Z,98695.44
2024-01-06T11:25:15.733Z,98695.78
2024-01-06T11:27:47.166Z,98685.03
2024-01-06T11:30:27.879Z,98688.72
2024-01-06T11:33:00.460Z,98692.88
2024-01-06T11:35:31.610Z,98690.28
2024-01-06T11:38:02.454Z,98687.50
2024-01-06T11:40:34.896Z,98679.22
2024-01-06T11:43:21.837Z,98674.34
2024-01-06T11:45:48.949Z,98674.25
2024-01-06T11:48:17.347Z,98666.63
2024-01-06T11:50:44.819Z,98655.47
2024-01-06T11:53:12.338Z,98661.91
2024-01-06T11:55:44.021Z,98663.94
2024-01-06T11:58:11.473Z,98667.59
2024-01-06T12:00:41.535Z,98669.94
2024-01-06T12:03:09.659Z,98664.72
2024-01-06T12:05:37.213Z,98659.94
2024-01-06T12:08:08.743Z,98661.25
2024-01-06T12:10:37.187Z,98661.00
2024-01-06T12:13:06.876Z,98662.78
2024-01-06T12:15:34.471Z,98665.94
2024-01-06T12:18:05.379Z,98668.97
2024-01-06T12:20:32.602Z,98659.91
2024-01-06T12:23:01.688Z,98658.72
2024-01-06T12:25:40.461Z,98654.22
2024-01-06T12:28:09.060Z,98649.72
2024-01-06T12:30:37.376Z,98656.78
2024-01-06T12:33:05.515Z,98654.28
2024-01-06T12:35:32.808Z,98663.72
2024-01-06T12:37:59.998Z,98668.69
2024-01-06T12:40:27.927Z,98658.50
2024-01-06T12:42:55.073Z,98661.75
2024-01-06T12:45:22.214Z,98667.59
2024-01-06T12:47:49.555Z,98645.56
2024-01-06T12:50:16.921Z,98635.19
2024-01-06T12:52:45.515Z,98613.00
2024-01-06T12:55:13.122Z,98625.84
2024-01-06T12:57:40.442Z,98650.06
2024-01-06T13:00:13.495Z,98646.94
2024-01-06T13:02:40.832Z,98645.19
2024-01-06T13:05:10.643Z,98650.31
2024-01-06T13:07:38.573Z,98639.84
2024-01-06T13:10:06.626Z,98632.59
2024-01-06T13:12:34.115Z,98635.63
2024-01-06T13:15:02.407Z,98635.84
2024-01-06T13:17:29.779Z,98639.94
2024-01-06T13:19:57.767Z,98638.94
2024-01-06T13:22:27.705Z,98647.81
2024-01-06T13:24:55.029Z,98660.53
2024-01-06T13:27:22.571Z,98660.09
2024-01-06T13:29:50.487Z,98659.03
2024-01-06T13:32:19.862Z,98659.47
2024-01-06T13:34:47.504Z,98659.84
2024-01-06T13:37:14.805Z,98658.38
2024-01-06T13:39:41.947Z,98660.41
2024-01-06T13:42:09.165Z,98665.47
2024-01-06T13:44:36.305Z,98649.94
2024-01-06T13:47:05.240Z,98642.78
2024-01-06T13:49:32.499Z,98622.94
2024-01-06T13:51:59.794Z,98633.41
2024-01-06T13:54:27.224Z,98627.06
2024-01-06T13:56:54.411Z,98624.06
2024-01-06T13:59:21.702Z,98618.75
2024-01-06T14:01:49.240Z,98612.66
2024-01-06T14:04:18.472Z,98617.53
2024-01-06T14:06:50.470Z,98627.38
2024-01-06T14:09:17.979Z,98620.13
2024-01-06T14:11:45.140Z,98632.53
2024-01-06T14:14:12.908Z,98627.16
2024-01-06T14:16:40.116Z,98634.06
2024-01-06T14:19:07.444Z,98631.69
2024-01-06T14:21:34.741Z,98634.63
2024-01-06T14:24:02.712Z,98639.16
2024-01-06T14:26:29.769Z,98634.44
2024-01-06T14:28:57.133Z,98639.41
2024-01-06T14:31:24.416Z,98644.44
2024-01-06T14:33:51.785Z,98648.53
2024-01-06T14:36:19.606Z,98639.34
2024-01-06T14:38:47.734Z,98646.75
2024-01-06T14:41:14.956Z,98644.50
2024-01-06T14:43:42.144Z,98653.44
2024-01-06T14:46:09.307Z,98654.25
2024-01-06T14:48:36.804Z,98661.47
2024-01-06T14:51:05.998Z,98665.78
2024-01-06T14:53:36.750Z,98666.53
2024-01-06T14:56:05.117Z,98668.69
2024-01-06T14:58:32.442Z,98663.94
2024-01-06T15:01:01.237Z,98660.81
2024-01-06T15:03:31.919Z,98667.63
2024-01-06T15:05:59.396Z,98672.53
2024-01-06T15:08:28.071Z,98673.97
2024-01-06T15:10:58.845Z,98669.88
2024-01-06T15:13:25.975Z,98671.63
2024-01-06T15:15:55.901Z,98658.91
2024-01-06T15:18:24.958Z,98663.28
2024-01-06T15:20:52.144Z,98665.25
2024-01-06T15:23:20.493Z,98657.16
2024-01-06T15:25:48.262Z,98665.88
2024-01-06T15:28:15.393Z,98670.31
2024-01-06T15:30:42.497Z,98663.25
2024-01-06T15:33:09.855Z,98673.38
2024-01-06T15:35:37.038Z,98665.13
2024-01-06T15:38:04.255Z,98675.78
2024-01-06T15:40:32.210Z,98680.75
2024-01-06T15:42:59.845Z,98677.06
2024-01-06T15:45:27.069Z,98693.16
2024-01-06T15:47:54.832Z,98695.28
2024-01-06T15:50:22.292Z,98694.69
2024-01-06T15:52:49.683Z,98683.75
2024-01-06T15:55:17.558Z,98674.53
2024-01-06T15:57:45.283Z,98685.03
2024-01-06T16:00:13.491Z,98688.13
2024-01-06T16:02:40.862Z,98690.50
2024-01-06T16:05:11.311Z,98686.75
2024-01-06T16:07:38.901Z,98664.16
2024-01-06T16:10:06.745Z,98653.19
2024-01-06T16:12:34.280Z,98650.41
2024-01-06T16:15:01.333Z,98657.06
2024-01-06T16:17:28.721Z,98666.06
2024-01-06T16:19:56.281Z,98668.97
2024-01-06T16:22:23.647Z,98673.41
2024-01-06T16:24:50.913Z,98681.38
2024-01-06T16:27:18.530Z,98682.16
2024-01-06T16:29:45.746Z,98680.47
2024-01-06T16:32:12.924Z,98680.97
2024-01-06T16:34:42.955Z,98680.75
2024-01-06T16:37:10.238Z,98686.72
2024-01-06T16:39:37.382Z,98682.63
2024-01-06T16:42:04.777Z,98689.38
2024-01-06T16:44:33.980Z,98685.78
2024-01-06T16:47:01.639Z,98687.78
2024-01-06T16:49:29.283Z,98689.13
2024-01-06T16:51:57.161Z,98690.88
2024-01-06T16:54:24.547Z,98688.81
2024-01-06T16:56:51.971Z,98689.50
2024-01-06T16:59:19.410Z,98683.69
2024-01-06T17:01:46.755Z,98695.81
2024-01-06T17:04:18.371Z,98688.25
2024-01-06T17:06:45.884Z,98688.81
2024-01-06T17:09:15.395Z,98689.28
2024-01-06T17:11:42.676Z,98689.72
2024-01-06T17:14:09.823Z,98692.78
2024-01-06T17:16:38.005Z,98689.16
2024-01-06T17:19:06.657Z,98700.56
2024-01-06T17:21:34.768Z,98688.34
2024-01-06T17:24:02.093Z,98690.53
2024-01-06T17:26:29.426Z,98689.00
2024-01-06T17:28:57.399Z,98690.63
2024-01-06T17:31:25.200Z,98680.50
2024-01-06T17:33:52.777Z,98678.16
2024-01-06T17:36:20.392Z,98679.78
2024-01-06T17:38:51.137Z,98692.19
2024-01-06T17:41:18.475Z,98688.34
2024-01-06T17:43:45.844Z,98691.25
2024-01-06T17:46:13.234Z,98688.09
2024-01-06T17:48:40.699Z,98687.75
2024-01-06T17:51:07.961Z,98679.94
2024-01-06T17:53:35.503Z,98679.50
2024-01-06T17:56:02.919Z,98680.53
2024-01-06T17:58:30.401Z,98684.50
2024-01-06T18:00:58.099Z,98686.69
2024-01-06T18:03:25.332Z,98691.03
2024-01-06T18:05:53.401Z,98684.03
2024-01-06T18:08:20.439Z,98687.66
2024-01-06T18:10:47.780Z,98697.09
2024-01-06T18:13:15.018Z,98695.69
2024-01-06T18:15:42.303Z,98694.16
2024-01-06T18:18:09.483Z,98698.50
2024-01-06T18:20:36.674Z,98702.31
2024-01-06T18:23:06.994Z,98705.81
2024-01-06T18:25:36.078Z,98713.16
2024-01-06T18:28:03.458Z,98711.34
2024-01-06T18:30:31.249Z,98709.13
2024-01-06T18:32:59.710Z,98704.09
2024-01-06T18:35:27.073Z,98701.59
2024-01-06T18:37:54.472Z,98700.84
2024-01-06T18:40:22.216Z,98710.47
2024-01-06T18:42:50.112Z,98710.75
2024-01-06T18:45:18.349Z,98715.09
2024-01-06T18:47:46.852Z,98712.59
2024-01-06T18:50:14.312Z,98697.66
2024-01-06T18:52:41.510Z,98695.50
2024-01-06T18:55:09.654Z,98688.00
2024-01-06T18:57:37.474Z,98709.03
2024-01-06T19:00:07.329Z,98693.00
2024-01-06T19:02:34.607Z,98691.59
2024-01-06T19:05:02.021Z,98698.69
2024-01-06T19:07:29.517Z,98694.50
2024-01-06T19:09:56.655Z,98693.09
2024-01-06T19:12:23.926Z,98682.97
2024-01-06T19:14:51.254Z,98682.44
2024-01-06T19:17:20.851Z,98690.84
2024-01-06T19:19:47.807Z,98681.94
2024-01-06T19:22:15.204Z,98686.47
2024-01-06T19:24:44.010Z,98692.16
2024-01-06T19:27:12.013Z,98693.41
2024-01-06T19:29:44.026Z,98690.16
2024-01-06T19:32:11.794Z,98696.34
2024-01-06T19:34:39.546Z,98696.19
2024-01-06T19:37:07.524Z,98690.47
2024-01-06T19:39:34.688Z,98693.41
2024-01-06T19:42:02.405Z,98693.22
2024-01-06T19:44:31.917Z,98683.56
2024-01-06T19:47:02.029Z,98681.13
2024-01-06T19:49:29.566Z,98682.31
2024-01-06T19:51:57.094Z,98686.06
2024-01-06T19:54:25.173Z,98679.56
2024-01-06T19:56:52.759Z,98670.44
2024-01-06T19:59:19.922Z,98672.44
2024-01-06T20:01:47.332Z,98676.81
2024-01-06T20:04:14.702Z,98669.69
2024-01-06T20:06:42.273Z,98674.28
2024-01-06T20:09:12.784Z,98668.56
2024-01-06T20:11:40.782Z,98659.91
2024-01-06T20:14:07.875Z,98661.31
2024-01-06T20:16:35.871Z,98633.34
2024-01-06T20:19:03.191Z,98649.53
2024-01-06T20:21:30.545Z,98641.44
2024-01-06T20:23:57.734Z,98639.13
2024-01-06T20:26:27.345Z,98649.81
2024-01-06T20:28:54.480Z,98652.03
2024-01-06T20:31:21.743Z,98657.38
2024-01-06T20:33:49.149Z,98658.19
2024-01-06T20:36:26.036Z,98664.13
2024-01-06T20:38:53.476Z,98665.53
2024-01-06T20:41:20.500Z,98674.81
2024-01-06T20:43:47.963Z,98683.56
2024-01-06T20:46:23.416Z,98672.28
2024-01-06T20:48:50.729Z,98671.53
2024-01-06T20:51:21.528Z,98664.38
2024-01-06T20:53:50.601Z,98662.56
2024-01-06T20:56:18.226Z,98658.59
2024-01-06T20:58:45.592Z,98663.94
2024-01-06T21:01:13.495Z,98666.44
2024-01-06T21:03:40.888Z,98666.75
2024-01-06T21:06:08.345Z,98659.41
2024-01-06T21:08:36.518Z,98653.59
2024-01-06T21:11:08.954Z,98652.41
2024-01-06T21:13:39.103Z,98651.16
2024-01-06T21:16:06.272Z,98656.94
2024-01-06T21:18:33.941Z,98659.47
2024-01-06T21:21:01.441Z,98655.97
2024-01-06T21:23:39.577Z,98649.38
2024-01-06T21:26:12.396Z,98653.75
2024-01-06T21:28:39.581Z,98649.69
2024-01-06T21:31:06.849Z,98655.28
2024-01-06T21:33:34.116Z,98664.50
2024-01-06T21:36:01.365Z,98655.88
2024-01-06T21:38:28.588Z,98655.59
2024-01-06T21:40:55.931Z,98661.16
2024-01-06T21:43:22.859Z,98648.19
2024-01-06T21:45:50.241Z,98644.50
2024-01-06T21:48:17.400Z,98646.41
2024-01-06T21:50:45.070Z,98638.19
2024-01-06T21:53:12.046Z,98632.09
2024-01-06T21:55:39.186Z,98634.91
2024-01-06T21:58:06.304Z,98632.59
2024-01-06T22:00:33.572Z,98630.53
2024-01-06T22:03:00.698Z,98624.16
2024-01-06T22:05:27.920Z,98626.13
2024-01-06T22:07:57.066Z,98618.50
2024-01-06T22:10:25.046Z,98602.84
2024-01-06T22:12:52.251Z,98591.94
2024-01-06T22:15:19.567Z,98592.16
2024-01-06T22:17:47.017Z,98585.06
2024-01-06T22:20:14.309Z,98583.56
2024-01-06T22:22:41.368Z,98573.84
2024-01-06T22:25:12.153Z,98575.56
2024-01-06T22:27:39.455Z,98569.16
2024-01-06T22:30:07.114Z,98569.53
2024-01-06T22:32:36.937Z,98564.78
2024-01-06T22:35:04.916Z,98563.50
2024-01-06T22:37:32.027Z,98565.81
2024-01-06T22:39:59.207Z,98567.31
2024-01-06T22:42:26.318Z,98561.75
2024-01-06T22:44:55.892Z,98559.75
2024-01-06T22:47:23.165Z,98555.00
2024-01-06T22:49:50.497Z,98551.81
2024-01-06T22:52:17.533Z,98552.63
2024-01-06T22:54:44.731Z,98557.00
2024-01-06T22:57:11.951Z,98542.38
2024-01-06T22:59:39.193Z,98548.00
2024-01-06T23:02:06.317Z,98534.63
2024-01-06T23:04:33.685Z,98544.72
2024-01-06T23:07:01.029Z,98533.22
2024-01-06T23:09:28.339Z,98516.75
2024-01-06T23:11:55.412Z,98534.50
2024-01-06T23:14:22.521Z,98524.25
2024-01-06T23:16:49.998Z,98517.97
2024-01-06T23:19:17.367Z,98517.38
2024-01-06T23:21:47.137Z,98510.06
2024-01-06T23:24:14.427Z,98508.22
2024-01-06T23:26:41.887Z,98498.81
2024-01-06T23:29:09.007Z,98500.56
2024-01-06T23:31:36.360Z,98506.50
2024-01-06T23:34:04.165Z,98515.56
2024-01-06T23:36:32.061Z,98516.28
2024-01-06T23:38:59.498Z,98506.50
2024-01-06T23:41:26.673Z,98504.09
2024-01-06T23:43:53.783Z,98515.59
2024-01-06T23:46:25.362Z,98502.44
2024-01-06T23:48:54.707Z,98512.72
2024-01-06T23:51:22.044Z,98476.34
2024-01-06T23:53:52.315Z,98486.19
2024-01-06T23:56:21.533Z,98495.38
2024-01-06T23:58:48.600Z,98496.09
